»·PEaware :: N913BH KSMX-KBFL

N913BH :: KSMX-KBFL

FLIGHT INFORMATION

Flight Status: Arrived
Operator: Privately registered:
United States
More flights under this callsign
Pilot: Cody H. (16298)
Aircraft: PIPER PA-28 CHEROKEE ARCHER
(PA28)
More flights by this aircraft type
Origin: KSMX Santa Maria Pub/Capt Hancock
United States
Destination: KBFL Meadows
United States
More flights between these airports :: More routes between these airports
Route: +
File this flight plan on PilotEdge
Remarks:
Altitude:
(Current/Filed)
7,500ft
Speed:
(Current/Filed)
115kts
Departed: 10-Oct-17 08:24 PM
Arrived: 10-Oct-17 09:07 PM
Distance/Time
Traveled:
76nm/0:43
Distance/Time
To Go:
Arrived

Flight Plot

Page will automatically refresh every two minutes.


Map Options




Map Legend


Flown Route
Filed Route
Departure Airport
Arrival Airport
Navaid (VOR, NDB)
Fix

Horizontal Profiles

Position Reports

Time Latitude Longitude Heading Altitude Ground
Speed
10-Oct-17 20:18 34.890693 -120.448873 30 266ft 0kts
10-Oct-17 20:19 34.890693 -120.448873 30 266ft 0kts
10-Oct-17 20:20 34.890693 -120.448873 30 266ft 0kts
10-Oct-17 20:21 34.890693 -120.448873 30 266ft 0kts
10-Oct-17 20:22 34.890693 -120.448873 30 266ft 0kts
10-Oct-17 20:23 34.890694 -120.448872 29 266ft 0kts
10-Oct-17 20:24 34.890694 -120.448872 29 266ft 0kts
10-Oct-17 20:25 34.890971 -120.447875 90 266ft 17kts
10-Oct-17 20:26 34.891929 -120.446057 43 266ft 0kts
10-Oct-17 20:27 34.891929 -120.446057 43 266ft 0kts
10-Oct-17 20:28 34.901605 -120.455762 327 648ft 79kts
10-Oct-17 20:29 34.919481 -120.466812 52 1707ft 64kts
10-Oct-17 20:30 34.926258 -120.433363 76 1971ft 113kts
10-Oct-17 20:31 34.929414 -120.394531 78 2225ft 123kts
10-Oct-17 20:32 34.934121 -120.353238 81 2360ft 120kts
10-Oct-17 20:33 34.940325 -120.313927 77 2649ft 115kts
10-Oct-17 20:34 34.944718 -120.272726 85 2559ft 133kts
10-Oct-17 20:35 34.945186 -120.230507 69 2845ft 108kts
10-Oct-17 20:36 34.958982 -120.204760 62 3796ft 96kts
10-Oct-17 20:37 34.969707 -120.177906 43 4730ft 83kts
10-Oct-17 20:38 34.985241 -120.155170 43 5549ft 86kts
10-Oct-17 20:39 35.000817 -120.132970 59 6314ft 94kts
10-Oct-17 20:40 35.011364 -120.103320 67 7063ft 91kts
10-Oct-17 20:41 35.021707 -120.074122 57 7497ft 120kts
10-Oct-17 20:42 35.038253 -120.036831 70 7512ft 129kts
10-Oct-17 20:43 35.048578 -119.998379 76 7292ft 138kts
10-Oct-17 20:44 35.059679 -119.956066 66 7363ft 129kts
10-Oct-17 20:45 35.074322 -119.921049 59 7594ft 127kts
10-Oct-17 20:47 35.088614 -119.881770 67 7720ft 126kts
10-Oct-17 20:48 35.102739 -119.843149 65 7557ft 134kts
10-Oct-17 20:49 35.113618 -119.801240 67 7629ft 131kts
10-Oct-17 20:50 35.128974 -119.760879 62 7669ft 125kts
10-Oct-17 20:51 35.144754 -119.721499 70 7614ft 133kts
10-Oct-17 20:52 35.158214 -119.686117 60 7612ft 130kts
10-Oct-17 20:53 35.175716 -119.647245 57 7571ft 131kts
10-Oct-17 20:54 35.191542 -119.608183 57 7621ft 130kts
10-Oct-17 20:55 35.207631 -119.568487 58 7560ft 130kts
10-Oct-17 20:56 35.224415 -119.528519 55 7258ft 133kts
10-Oct-17 20:57 35.244615 -119.490363 49 6781ft 133kts
10-Oct-17 20:58 35.262868 -119.451557 62 6358ft 129kts
10-Oct-17 20:59 35.280600 -119.414385 51 5884ft 126kts
10-Oct-17 21:00 35.293539 -119.374770 70 5454ft 126kts
10-Oct-17 21:01 35.303069 -119.336040 67 5065ft 124kts
10-Oct-17 21:02 35.313093 -119.295946 67 4699ft 123kts
10-Oct-17 21:03 35.322796 -119.255732 72 4328ft 121kts
10-Oct-17 21:04 35.332598 -119.216901 72 4023ft 119kts
10-Oct-17 21:05 35.339591 -119.176902 65 3657ft 120kts
10-Oct-17 21:06 35.347811 -119.136579 72 3163ft 121kts
10-Oct-17 21:07 35.354956 -119.099308 71 2455ft 129kts
10-Oct-17 21:08 35.368248 -119.060843 45 921ft 97kts
10-Oct-17 21:09 35.387162 -119.039823 39 1160ft 97kts
10-Oct-17 21:10 35.407168 -119.027689 343 1219ft 79kts
10-Oct-17 21:11 35.425385 -119.046077 318 714ft 86kts
10-Oct-17 21:12 35.438967 -119.062338 329 495ft 18kts
10-Oct-17 21:13 35.438988 -119.060170 135 498ft 30kts
10-Oct-17 21:14 35.434956 -119.055255 133 493ft 14kts
10-Oct-17 21:15 35.435885 -119.053292 61 502ft 0kts
10-Oct-17 21:16 35.435707 -119.053075 185 503ft 0kts

Navigation Log

Ident Type
1. KSMX Airport
2. KBFL Airport